Time;durP1;ratioP1;P1;durP2;ratioP2;P2;SDS_P1;SDS_P2;PMS_P1;PMS_P2;Temp;Humidity;BMP_temperature;BMP_pressure;BME280_temperature;BME280_humidity;BME280_pressure;Samples;Min_cycle;Max_cycle;Signal;HPM_P1;HPM_P2
2022/10/03 00:04:23;;;;;;;16.37;5.83;;;;;;;12.92;50.47;101360.81;10488003;28;20207;-82
2022/10/03 00:09:55;;;;;;;17.40;5.67;;;;;;;12.95;50.01;101357.34;10502378;28;20215;-82
2022/10/03 00:15:24;;;;;;;14.10;4.97;;;;;;;12.60;51.03;101365.69;10501405;28;20292;-82
2022/10/03 00:21:08;;;;;;;25.77;5.50;;;;;;;12.55;50.64;101365.81;10484060;28;20215;-84
2022/10/03 00:26:48;;;;;;;19.27;4.70;;;;;;;12.42;51.42;101380.84;10497595;28;20226;-82
2022/10/03 00:32:43;;;;;;;13.47;4.57;;;;;;;12.92;50.31;101383.44;10496962;28;20523;-82
2022/10/03 00:38:16;;;;;;;15.13;4.17;;;;;;;12.91;50.50;101401.59;10453938;28;20276;-83
2022/10/03 00:44:06;;;;;;;15.27;4.47;;;;;;;12.70;50.58;101392.84;10500603;28;20217;-84
2022/10/03 00:49:52;;;;;;;14.57;3.60;;;;;;;12.42;51.67;101409.13;10469600;28;20223;-83
2022/10/03 00:55:33;;;;;;;17.20;4.43;;;;;;;12.86;50.72;101407.41;10483064;28;20618;-82
2022/10/03 01:01:03;;;;;;;19.03;5.20;;;;;;;12.58;50.56;101412.41;10499124;28;20221;-82
2022/10/03 01:06:33;;;;;;;14.10;4.67;;;;;;;12.72;50.90;101412.31;10500093;28;20268;-82
2022/10/03 01:12:34;;;;;;;19.37;5.00;;;;;;;12.53;51.34;101421.00;10499845;28;20223;-83
2022/10/03 01:18:21;;;;;;;19.70;5.10;;;;;;;12.71;51.02;101421.97;10500610;28;20256;-83
2022/10/03 01:24:10;;;;;;;17.33;5.30;;;;;;;12.34;52.16;101422.03;10495813;28;20202;-83
2022/10/03 01:35:30;;;;;;;14.60;5.40;;;;;;;12.38;52.76;101422.25;10474924;28;20199;-83
2022/10/03 01:41:03;;;;;;;19.57;6.00;;;;;;;12.49;51.44;101426.50;10496405;28;20265;-83
2022/10/03 01:46:42;;;;;;;19.53;6.40;;;;;;;12.29;52.32;101432.63;10513225;28;20204;-82
2022/10/03 01:52:31;;;;;;;19.30;6.20;;;;;;;12.39;52.15;101429.56;10495379;28;20280;-82
2022/10/03 01:58:02;;;;;;;21.43;5.83;;;;;;;12.81;50.89;101428.19;10499847;28;20199;-83
2022/10/03 02:03:35;;;;;;;23.40;6.70;;;;;;;12.16;52.60;101444.81;10465149;28;20253;-82
2022/10/03 02:09:17;;;;;;;15.93;5.87;;;;;;;12.61;51.29;101440.88;10512868;28;20203;-82
2022/10/03 02:14:46;;;;;;;13.40;5.67;;;;;;;12.21;52.28;101456.00;10520200;28;20514;-83
2022/10/03 02:20:22;;;;;;;19.90;6.37;;;;;;;12.29;52.56;101452.41;10504396;28;20508;-83
2022/10/03 02:25:58;;;;;;;13.87;5.13;;;;;;;11.84;53.14;101474.13;10501692;28;20223;-83
2022/10/03 02:31:58;;;;;;;20.23;5.37;;;;;;;12.11;52.38;101470.41;10502381;28;20235;-83
2022/10/03 02:37:23;;;;;;;22.93;6.37;;;;;;;12.19;51.85;101466.78;10506327;28;20588;-84
2022/10/03 02:43:15;;;;;;;15.20;5.67;;;;;;;11.95;52.81;101479.22;10488255;28;20207;-84
2022/10/03 02:48:37;;;;;;;18.23;6.20;;;;;;;11.85;52.82;101479.44;10474316;28;20211;-83
2022/10/03 02:54:37;;;;;;;24.07;6.63;;;;;;;11.54;53.57;101475.59;10490725;28;20362;-83
2022/10/03 03:00:12;;;;;;;20.53;6.47;;;;;;;12.29;51.76;101477.84;10473753;28;20203;-83
2022/10/03 03:05:47;;;;;;;19.47;6.33;;;;;;;11.57;54.36;101481.47;10473718;28;20237;-82
2022/10/03 03:11:47;;;;;;;16.47;6.17;;;;;;;11.62;54.56;101489.81;10504873;28;20215;-82
2022/10/03 03:17:40;;;;;;;20.27;6.50;;;;;;;11.92;53.01;101485.50;10458375;28;20363;-83
2022/10/03 03:23:24;;;;;;;16.67;6.50;;;;;;;11.66;54.20;101487.22;10485598;28;20233;-83
2022/10/03 03:29:08;;;;;;;17.60;7.03;;;;;;;11.28;55.24;101481.75;10503436;28;20753;-82
2022/10/03 03:34:50;;;;;;;20.67;6.67;;;;;;;12.10;52.69;101491.31;10516946;28;20215;-83
2022/10/03 03:40:17;;;;;;;14.00;6.83;;;;;;;11.79;53.11;101492.00;10485669;28;20251;-83
2022/10/03 03:46:25;;;;;;;16.40;6.07;;;;;;;11.81;53.80;101484.06;10502764;28;20195;-83
2022/10/03 03:51:56;;;;;;;19.47;7.20;;;;;;;12.09;53.18;101481.19;10515087;28;20231;-83
2022/10/03 03:57:36;;;;;;;16.70;6.93;;;;;;;11.84;53.43;101499.53;10503345;28;20191;-82
2022/10/03 04:03:13;;;;;;;23.27;7.77;;;;;;;11.99;53.12;101497.19;10504954;28;20242;-83
2022/10/03 04:09:03;;;;;;;19.03;6.83;;;;;;;11.63;54.24;101501.94;10497566;28;20254;-82
2022/10/03 04:14:55;;;;;;;21.53;6.53;;;;;;;11.66;54.08;101504.16;10502304;28;20219;-83
2022/10/03 04:20:17;;;;;;;18.07;7.40;;;;;;;11.81;54.05;101506.66;10470602;28;20269;-82
2022/10/03 04:26:06;;;;;;;14.33;6.40;;;;;;;11.91;53.64;101517.72;10487053;28;20639;-83
2022/10/03 04:31:56;;;;;;;21.40;7.33;;;;;;;12.18;53.26;101516.00;10500932;28;20276;-82
2022/10/03 04:37:30;;;;;;;23.23;8.03;;;;;;;11.71;54.49;101518.19;10468981;28;20272;-83
2022/10/03 04:43:17;;;;;;;17.63;7.33;;;;;;;11.66;55.10;101518.28;10501533;28;20195;-83
2022/10/03 04:48:47;;;;;;;18.97;7.10;;;;;;;11.96;54.11;101522.44;10503413;28;20268;-83
2022/10/03 04:54:37;;;;;;;15.63;6.93;;;;;;;11.89;54.52;101522.00;10483318;28;20227;-83
2022/10/03 05:00:22;;;;;;;22.87;7.47;;;;;;;12.23;53.08;101519.56;10486096;28;20551;-82
2022/10/03 05:05:51;;;;;;;20.57;7.77;;;;;;;12.40;53.12;101520.88;10500925;28;20248;-83
2022/10/03 05:11:35;;;;;;;16.13;7.07;;;;;;;12.50;52.43;101509.34;10496433;28;20536;-83
2022/10/03 05:17:36;;;;;;;16.27;7.33;;;;;;;12.40;53.30;101524.53;10482658;28;20239;-82
2022/10/03 05:23:26;;;;;;;20.47;7.10;;;;;;;12.30;53.39;101519.09;10469136;28;20272;-83
2022/10/03 05:28:53;;;;;;;20.70;7.83;;;;;;;12.08;53.66;101524.72;10500749;28;20256;-83
2022/10/03 05:34:27;;;;;;;15.40;6.47;;;;;;;11.49;54.99;101532.16;10482064;28;20272;-83
2022/10/03 05:40:03;;;;;;;21.70;7.37;;;;;;;12.38;52.88;101526.88;10478636;28;20211;-82
2022/10/03 05:45:41;;;;;;;20.27;8.37;;;;;;;12.13;53.23;101536.72;10501203;28;20221;-83
2022/10/03 05:51:12;;;;;;;14.23;7.87;;;;;;;11.73;54.87;101540.47;10490437;28;20677;-83
2022/10/03 05:56:43;;;;;;;13.13;7.70;;;;;;;11.46;55.39;101544.91;10489423;28;20215;-83
2022/10/03 06:02:24;;;;;;;15.90;7.60;;;;;;;12.09;53.51;101554.66;10507965;28;20195;-82
2022/10/03 06:08:00;;;;;;;17.77;6.60;;;;;;;11.82;54.24;101559.19;10513336;28;20647;-82
2022/10/03 06:13:57;;;;;;;19.40;7.63;;;;;;;11.59;54.83;101568.69;10489435;28;20231;-82
2022/10/03 06:19:48;;;;;;;16.70;7.17;;;;;;;12.34;53.24;101568.22;10507257;28;20199;-82
2022/10/03 06:25:32;;;;;;;14.17;6.73;;;;;;;12.55;52.19;101572.25;10519680;28;20280;-83
2022/10/03 06:31:12;;;;;;;16.53;6.37;;;;;;;12.21;53.46;101580.38;10506531;28;20214;-82
2022/10/03 06:37:00;;;;;;;15.60;7.57;;;;;;;11.89;54.06;101582.19;10519702;28;20195;-82
2022/10/03 06:43:15;;;;;;;14.77;6.73;;;;;;;12.44;52.86;101575.63;10488515;28;20599;-82
2022/10/03 06:49:18;;;;;;;16.97;6.07;;;;;;;12.36;52.41;101574.41;10373003;28;20205;-82
2022/10/03 06:55:05;;;;;;;17.03;6.07;;;;;;;12.10;53.60;101567.63;10460352;28;20231;-83
2022/10/03 07:01:01;;;;;;;22.03;6.73;;;;;;;12.49;53.50;101567.06;10505023;28;20199;-82
2022/10/03 07:06:38;;;;;;;23.83;7.40;;;;;;;12.73;52.31;101583.72;10490833;28;20241;-82
2022/10/03 07:12:18;;;;;;;21.23;8.00;;;;;;;12.91;52.50;101575.03;10507032;28;20276;-82
2022/10/03 07:17:50;;;;;;;19.40;7.70;;;;;;;12.86;52.92;101594.16;10500479;28;20284;-82
2022/10/03 07:23:17;;;;;;;34.10;16.30;;;;;;;13.32;51.69;101599.50;10504615;28;20192;-83
2022/10/03 07:28:42;;;;;;;19.73;7.67;;;;;;;12.61;52.30;101610.59;10465229;28;20227;-82
2022/10/03 07:34:52;;;;;;;19.77;6.87;;;;;;;12.68;53.07;101598.81;10504772;28;20296;-82
2022/10/03 07:40:39;;;;;;;22.17;7.90;;;;;;;12.87;52.83;101612.81;10483073;28;20677;-82
2022/10/03 07:46:59;;;;;;;17.90;7.07;;;;;;;13.05;52.71;101617.44;10451709;28;20246;-83
2022/10/03 07:52:49;;;;;;;18.53;7.40;;;;;;;14.14;49.72;101612.25;10423061;28;20752;-81
2022/10/03 07:58:52;;;;;;;16.13;7.47;;;;;;;13.51;51.86;101624.78;10455247;28;20189;-82
2022/10/03 08:04:33;;;;;;;17.20;7.63;;;;;;;13.25;53.53;101631.13;10480112;28;20199;-85
2022/10/03 08:10:08;;;;;;;19.00;7.43;;;;;;;13.84;51.20;101625.25;10442310;28;20273;-83
2022/10/03 08:15:43;;;;;;;17.80;7.10;;;;;;;14.30;49.37;101628.47;10469544;28;20219;-83
2022/10/03 08:21:20;;;;;;;14.10;6.70;;;;;;;14.22;49.59;101636.94;10462630;28;20187;-85
2022/10/03 08:26:43;;;;;;;21.07;6.77;;;;;;;14.42;49.78;101634.34;10429105;28;20590;-84
2022/10/03 08:32:43;;;;;;;16.87;5.83;;;;;;;14.24;50.77;101628.94;10417369;28;20227;-85
2022/10/03 08:38:32;;;;;;;15.53;5.23;;;;;;;14.08;50.52;101643.56;10421906;28;20277;-82
2022/10/03 08:44:11;;;;;;;17.27;5.90;;;;;;;14.75;48.62;101646.06;10425766;28;20219;-84
2022/10/03 08:49:55;;;;;;;15.70;6.53;;;;;;;14.41;49.27;101640.34;10459988;28;20913;-83
2022/10/03 08:55:48;;;;;;;12.23;4.73;;;;;;;14.27;50.00;101650.97;10430366;28;20244;-83
2022/10/03 09:01:23;;;;;;;16.00;4.87;;;;;;;16.04;46.09;101641.38;10422533;28;20666;-83
2022/10/03 09:07:09;;;;;;;13.37;4.30;;;;;;;15.28;47.07;101646.94;10437943;28;20258;-84
2022/10/03 09:12:46;;;;;;;16.30;4.73;;;;;;;16.04;45.79;101641.38;10464229;28;20207;-83
2022/10/03 09:18:24;;;;;;;15.67;4.90;;;;;;;16.10;46.56;101649.41;10448586;28;20203;-83
2022/10/03 09:24:19;;;;;;;12.23;4.13;;;;;;;15.19;47.19;101652.63;10450248;28;20208;-82
2022/10/03 09:30:09;;;;;;;13.33;3.80;;;;;;;15.08;48.31;101649.28;10475915;28;20591;-83
2022/10/03 09:35:55;;;;;;;12.67;4.20;;;;;;;13.85;49.85;101656.13;10463930;28;20629;-83
2022/10/03 09:41:36;;;;;;;15.50;3.20;;;;;;;14.61;48.05;101645.38;10470510;28;20202;-86
2022/10/03 09:47:26;;;;;;;9.90;2.93;;;;;;;15.89;45.08;101633.44;10471250;28;20206;-82
2022/10/03 09:53:19;;;;;;;9.43;2.20;;;;;;;15.11;46.65;101631.56;10466829;28;20247;-83
2022/10/03 09:59:12;;;;;;;10.90;2.47;;;;;;;15.91;45.92;101617.69;10437710;28;20204;-82
2022/10/03 10:04:37;;;;;;;10.80;2.67;;;;;;;15.74;45.28;101632.00;10464165;28;20219;-82
2022/10/03 10:10:26;;;;;;;10.37;2.27;;;;;;;14.73;47.10;101634.19;10474798;28;20253;-81
2022/10/03 10:16:17;;;;;;;5.13;1.60;;;;;;;15.44;46.22;101634.72;10471067;28;20285;-82
2022/10/03 10:21:58;;;;;;;9.03;2.03;;;;;;;15.44;45.73;101623.34;10435658;28;20520;-82
2022/10/03 10:27:58;;;;;;;11.33;2.00;;;;;;;15.73;44.28;101622.63;10444424;28;20273;-84
2022/10/03 10:33:58;;;;;;;9.20;1.97;;;;;;;17.06;41.88;101619.16;10455966;28;20289;-82
2022/10/03 10:39:55;;;;;;;7.03;1.53;;;;;;;16.15;42.61;101603.69;10476118;28;20196;-81
2022/10/03 10:45:34;;;;;;;4.97;1.20;;;;;;;15.34;43.86;101609.50;10481649;28;20230;-82
2022/10/03 10:51:15;;;;;;;5.20;1.17;;;;;;;16.02;42.24;101604.75;10440646;28;20253;-81
2022/10/03 10:56:56;;;;;;;7.45;1.08;;;;;;;16.34;40.45;101605.28;10468557;28;20241;-80
2022/10/03 11:02:57;;;;;;;5.87;0.93;;;;;;;15.97;41.01;101613.50;10461471;28;20204;-81
2022/10/03 11:08:48;;;;;;;10.32;1.67;;;;;;;16.39;40.51;101602.25;10452553;28;20203;-82
2022/10/03 11:14:41;;;;;;;10.07;1.15;;;;;;;15.56;41.84;101604.78;10424202;28;20250;-81
2022/10/03 11:20:40;;;;;;;6.67;1.10;;;;;;;16.52;39.61;101595.47;10458654;28;20289;-81
2022/10/03 11:26:05;;;;;;;4.95;1.10;;;;;;;17.30;38.68;101595.63;10435345;28;20284;-81
2022/10/03 11:32:17;;;;;;;9.13;1.63;;;;;;;17.27;39.55;101585.78;10456139;28;20296;-82
2022/10/03 11:37:50;;;;;;;15.00;1.40;;;;;;;17.20;39.58;101582.66;10455277;28;20195;-82
2022/10/03 11:43:50;;;;;;;3.53;0.68;;;;;;;16.06;39.56;101588.69;10463368;28;20192;-82
2022/10/03 11:49:19;;;;;;;6.30;1.17;;;;;;;17.12;38.84;101585.59;10457470;28;20282;-81
2022/10/03 11:54:44;;;;;;;3.67;1.02;;;;;;;17.91;35.79;101579.50;10435313;28;20281;-81
2022/10/03 12:00:18;;;;;;;3.13;0.77;;;;;;;17.75;36.99;101581.38;10442966;28;20220;-81
2022/10/03 12:12:23;;;;;;;4.03;0.75;;;;;;;17.68;35.94;101566.06;10460968;28;20612;-83
2022/10/03 12:17:54;;;;;;;5.63;0.63;;;;;;;17.90;37.02;101554.19;10426200;28;20277;-86
2022/10/03 12:23:31;;;;;;;4.90;1.00;;;;;;;17.66;35.52;101559.88;10452790;28;20257;-86
2022/10/03 12:28:56;;;;;;;5.30;0.77;;;;;;;17.28;35.76;101561.78;10451346;28;20238;-85
2022/10/03 12:34:39;;;;;;;3.90;0.80;;;;;;;17.11;35.49;101566.81;10429451;28;20300;-86
2022/10/03 12:40:11;;;;;;;6.43;0.60;;;;;;;18.04;35.02;101554.66;10425111;28;20211;-81
2022/10/03 12:45:49;;;;;;;3.10;0.88;;;;;;;17.43;37.61;101551.75;10455586;28;20474;-81
2022/10/03 12:51:53;;;;;;;4.43;0.63;;;;;;;15.56;38.63;101557.31;10475581;28;20203;-81
2022/10/03 12:57:38;;;;;;;1.58;0.50;;;;;;;17.17;35.99;101554.03;10417623;28;20600;-80
2022/10/03 13:03:16;;;;;;;3.67;0.50;;;;;;;18.26;34.47;101551.28;10477742;28;20222;-80
2022/10/03 13:08:53;;;;;;;9.77;0.97;;;;;;;17.48;35.68;101557.19;10403519;28;20535;-80
2022/10/03 13:15:09;;;;;;;2.20;0.50;;;;;;;18.06;35.23;101552.28;10430203;28;20255;-81
2022/10/03 13:20:35;;;;;;;8.02;1.02;;;;;;;17.28;37.14;101549.56;10430210;28;20238;-80
2022/10/03 13:26:07;;;;;;;3.83;1.00;;;;;;;17.83;37.17;101549.09;10448687;28;20490;-81
2022/10/03 13:31:33;;;;;;;4.67;0.70;;;;;;;16.62;37.91;101571.44;10463107;28;20514;-80
2022/10/03 13:37:04;;;;;;;5.53;1.10;;;;;;;18.25;35.34;101551.66;10458978;28;20293;-81
2022/10/03 13:42:31;;;;;;;8.57;1.20;;;;;;;18.45;35.38;101542.16;10448756;28;20196;-80
2022/10/03 13:47:57;;;;;;;4.53;1.15;;;;;;;16.93;37.10;101549.91;10469400;28;20199;-80
2022/10/03 13:53:45;;;;;;;6.07;0.70;;;;;;;16.45;37.37;101543.94;10441526;28;20288;-80
2022/10/03 13:59:23;;;;;;;4.70;0.80;;;;;;;17.51;37.31;101530.84;10459697;28;20217;-81
2022/10/03 14:05:06;;;;;;;2.40;0.68;;;;;;;17.95;36.06;101529.13;10463538;28;20196;-80
2022/10/03 14:11:02;;;;;;;7.33;0.73;;;;;;;17.52;35.88;101531.66;10439734;28;20207;-80
2022/10/03 14:16:31;;;;;;;3.13;0.63;;;;;;;17.38;37.18;101529.16;10446990;28;20251;-80
2022/10/03 14:22:08;;;;;;;5.72;0.85;;;;;;;17.32;37.99;101527.69;10474621;28;20200;-80
2022/10/03 14:27:40;;;;;;;2.80;0.53;;;;;;;17.28;37.24;101526.75;10425356;28;20327;-80
2022/10/03 14:33:22;;;;;;;3.73;0.43;;;;;;;18.33;35.85;101514.47;10439395;28;21410;-82
2022/10/03 14:39:12;;;;;;;4.97;0.93;;;;;;;17.72;36.28;101509.97;10455590;28;20253;-81
2022/10/03 14:44:42;;;;;;;4.53;0.83;;;;;;;17.96;37.30;101495.72;10467080;28;20192;-80
2022/10/03 14:50:05;;;;;;;3.37;0.90;;;;;;;17.43;36.96;101506.13;10459250;28;20187;-81
2022/10/03 14:55:34;;;;;;;4.37;1.00;;;;;;;17.41;36.69;101497.09;10428831;28;20652;-80
2022/10/03 15:01:23;;;;;;;1.33;0.35;;;;;;;18.02;35.46;101499.13;10430923;28;20218;-80
2022/10/03 15:06:45;;;;;;;5.05;0.70;;;;;;;17.65;36.25;101489.78;10437344;28;20188;-80
2022/10/03 15:12:30;;;;;;;4.93;1.00;;;;;;;18.11;35.92;101489.25;10433529;28;20543;-80
2022/10/03 15:17:56;;;;;;;6.27;0.87;;;;;;;18.26;35.58;101482.81;10436643;28;20207;-81
2022/10/03 15:23:22;;;;;;;2.27;0.97;;;;;;;17.69;35.78;101485.88;10440331;28;20188;-80
2022/10/03 15:28:47;;;;;;;5.63;0.70;;;;;;;17.79;36.36;101473.16;10466492;28;20192;-80
2022/10/03 15:34:31;;;;;;;4.40;1.00;;;;;;;17.76;36.15;101463.28;10418326;28;20266;-80
2022/10/03 15:39:59;;;;;;;5.20;0.87;;;;;;;18.53;36.50;101454.66;10461014;28;20207;-80
2022/10/03 15:45:27;;;;;;;5.60;0.90;;;;;;;18.14;37.33;101454.28;10509942;28;20199;-81
2022/10/03 15:50:51;;;;;;;6.93;1.03;;;;;;;18.07;37.07;101451.25;10505196;28;20555;-80
2022/10/03 15:56:21;;;;;;;3.40;0.53;;;;;;;16.45;38.55;101441.50;10450431;28;20536;-81
2022/10/03 16:01:45;;;;;;;4.80;0.70;;;;;;;17.43;37.36;101440.59;10454235;28;20537;-80
2022/10/03 16:07:27;;;;;;;5.17;1.00;;;;;;;17.66;36.86;101440.13;10458977;28;20677;-80
2022/10/03 16:13:04;;;;;;;4.73;0.80;;;;;;;17.45;37.33;101434.50;10475304;28;20481;-80
2022/10/03 16:18:55;;;;;;;3.53;0.80;;;;;;;16.93;38.54;101430.28;10500505;28;20240;-80
2022/10/03 16:24:22;;;;;;;3.77;0.70;;;;;;;17.63;38.45;101425.38;10501845;28;20224;-81
2022/10/03 16:30:10;;;;;;;5.60;1.10;;;;;;;17.76;38.75;101433.94;10426480;28;20734;-80
2022/10/03 16:35:39;;;;;;;5.77;0.80;;;;;;;17.44;39.44;101436.53;10427318;28;20290;-80
2022/10/03 16:41:03;;;;;;;4.53;1.10;;;;;;;17.51;39.62;101439.63;10412458;28;20246;-80
2022/10/03 16:46:30;;;;;;;3.37;0.63;;;;;;;17.28;39.92;101433.56;10380519;28;20505;-80
2022/10/03 16:52:02;;;;;;;3.72;0.70;;;;;;;17.52;39.45;101432.72;10438690;28;20539;-80
2022/10/03 16:57:31;;;;;;;4.57;0.60;;;;;;;17.01;41.39;101436.25;10451121;28;20246;-80
2022/10/03 17:02:53;;;;;;;4.97;0.97;;;;;;;17.05;42.28;101437.22;10419048;28;20204;-80
2022/10/03 17:08:17;;;;;;;6.10;2.47;;;;;;;17.07;41.64;101432.81;10446371;28;20285;-80
2022/10/03 17:13:47;;;;;;;5.37;1.63;;;;;;;17.08;41.90;101425.94;10411013;28;20741;-81
2022/10/03 17:19:19;;;;;;;6.33;1.60;;;;;;;16.73;43.24;101418.94;10425990;28;20359;-81
2022/10/03 17:25:02;;;;;;;4.30;1.80;;;;;;;16.49;44.28;101428.25;10454859;28;20631;-81
2022/10/03 17:30:34;;;;;;;10.70;2.47;;;;;;;16.12;44.59;101433.72;10444292;28;20227;-80
2022/10/03 17:36:26;;;;;;;8.50;3.57;;;;;;;16.17;44.94;101430.66;10451797;28;20490;-81
2022/10/03 17:41:52;;;;;;;5.53;3.20;;;;;;;16.06;46.04;101432.25;10466670;28;20244;-81
2022/10/03 17:47:21;;;;;;;10.10;5.00;;;;;;;16.38;45.16;101418.47;10482781;28;20191;-81
2022/10/03 17:52:45;;;;;;;14.37;7.07;;;;;;;15.78;46.69;101434.81;10442004;28;20276;-81
2022/10/03 17:58:15;;;;;;;13.67;7.43;;;;;;;15.94;46.16;101420.81;10459252;28;20201;-81
2022/10/03 18:03:49;;;;;;;11.00;6.30;;;;;;;15.35;47.85;101425.69;10454506;28;20205;-79
2022/10/03 18:09:14;;;;;;;9.23;5.60;;;;;;;16.00;45.88;101413.75;10450519;28;20222;-82
2022/10/03 18:15:03;;;;;;;12.13;6.87;;;;;;;15.73;47.03;101422.81;10445673;28;20246;-81
2022/10/03 18:20:40;;;;;;;12.10;7.43;;;;;;;16.07;46.04;101419.72;10454710;28;20195;-81
2022/10/03 18:26:06;;;;;;;10.53;7.13;;;;;;;15.52;47.81;101414.22;10465328;28;20223;-81
2022/10/03 18:31:32;;;;;;;12.33;7.57;;;;;;;15.28;48.53;101412.00;10456264;28;20532;-81
2022/10/03 18:36:55;;;;;;;13.83;9.73;;;;;;;15.81;46.71;101413.38;10473203;28;20447;-81
2022/10/03 18:42:22;;;;;;;15.97;13.20;;;;;;;15.73;46.47;101412.28;10467353;28;20199;-82
2022/10/03 18:47:49;;;;;;;12.70;8.93;;;;;;;15.05;48.34;101399.25;10447390;28;20195;-83
2022/10/03 18:53:31;;;;;;;15.77;9.60;;;;;;;15.03;48.22;101390.25;10434426;28;20195;-82
2022/10/03 18:59:08;;;;;;;9.23;7.97;;;;;;;14.91;48.60;101388.13;10481920;28;20191;-81
2022/10/03 19:04:44;;;;;;;11.00;8.43;;;;;;;14.81;49.13;101394.16;10428979;28;20192;-81
2022/10/03 19:10:33;;;;;;;12.77;8.43;;;;;;;14.78;48.62;101384.31;10475729;28;20230;-82
2022/10/03 19:16:07;;;;;;;13.13;5.80;;;;;;;14.95;48.26;101388.28;10453821;28;20223;-82
2022/10/03 19:21:33;;;;;;;6.80;4.53;;;;;;;14.60;48.64;101399.69;10435415;28;20192;-81
2022/10/03 19:27:00;;;;;;;9.27;4.03;;;;;;;14.20;49.92;101407.59;10464022;28;20227;-84
2022/10/03 19:32:26;;;;;;;6.83;3.83;;;;;;;13.95;50.20;101417.72;10439739;28;20494;-81
2022/10/03 19:37:54;;;;;;;7.53;3.90;;;;;;;14.29;49.32;101413.28;10460946;28;20243;-82
2022/10/03 19:43:16;;;;;;;7.37;3.70;;;;;;;13.55;50.94;101414.16;10456251;28;20195;-82
2022/10/03 19:48:45;;;;;;;7.57;4.20;;;;;;;13.75;50.64;101401.38;10464700;28;20204;-82
2022/10/03 19:54:30;;;;;;;6.70;3.50;;;;;;;14.18;49.48;101400.59;10472872;28;20288;-82
2022/10/03 19:59:55;;;;;;;9.10;4.83;;;;;;;13.81;50.12;101411.38;10454692;28;20221;-80
2022/10/03 20:05:19;;;;;;;8.83;4.33;;;;;;;13.85;50.12;101403.88;10440076;28;20553;-83
2022/10/03 20:10:53;;;;;;;8.17;5.40;;;;;;;13.46;51.14;101406.81;10457890;28;20670;-83
2022/10/03 20:16:20;;;;;;;11.47;6.60;;;;;;;13.47;50.84;101400.00;10467335;28;20268;-82
2022/10/03 20:21:51;;;;;;;14.53;6.37;;;;;;;13.21;52.03;101414.91;10432769;28;20191;-83
2022/10/03 20:27:27;;;;;;;7.70;4.03;;;;;;;13.39;51.23;101415.81;10453762;28;20516;-82
2022/10/03 20:32:50;;;;;;;9.17;4.83;;;;;;;13.46;50.28;101404.81;10469686;28;20249;-82
2022/10/03 20:38:19;;;;;;;8.80;4.60;;;;;;;13.61;49.99;101412.88;10442514;28;20616;-81
2022/10/03 20:44:11;;;;;;;7.73;3.63;;;;;;;13.36;50.34;101411.63;10428008;28;20228;-83
2022/10/03 20:49:38;;;;;;;10.10;3.87;;;;;;;13.07;51.64;101397.16;10473835;28;20196;-82
2022/10/03 20:55:05;;;;;;;8.30;3.70;;;;;;;13.08;51.37;101398.00;10450165;28;20223;-82
2022/10/03 21:00:27;;;;;;;7.17;3.30;;;;;;;13.22;50.68;101393.09;10457838;28;20341;-82
2022/10/03 21:05:51;;;;;;;5.90;3.20;;;;;;;13.33;50.27;101383.97;10465854;28;20222;-83
2022/10/03 21:11:17;;;;;;;7.33;3.37;;;;;;;13.18;50.08;101398.53;10435394;28;20187;-83
2022/10/03 21:16:49;;;;;;;6.77;3.47;;;;;;;13.13;50.10;101401.53;10437549;28;20223;-82
2022/10/03 21:22:15;;;;;;;8.20;3.73;;;;;;;13.25;49.64;101398.94;10461864;28;20245;-84
2022/10/03 21:27:47;;;;;;;6.37;4.13;;;;;;;12.91;50.50;101376.13;10469693;28;20265;-81
2022/10/03 21:33:15;;;;;;;7.93;3.83;;;;;;;13.34;49.90;101379.13;10429720;28;20639;-81
2022/10/03 21:38:41;;;;;;;6.50;3.57;;;;;;;12.74;50.80;101381.72;10456720;28;20215;-82
2022/10/03 21:44:13;;;;;;;8.13;3.90;;;;;;;12.73;50.84;101380.06;10472719;28;20196;-82
2022/10/03 21:49:47;;;;;;;8.40;4.00;;;;;;;13.24;49.29;101363.31;10443404;28;20208;-83
2022/10/03 21:55:40;;;;;;;9.47;4.47;;;;;;;12.88;50.19;101355.00;10468585;28;20246;-82
2022/10/03 22:01:18;;;;;;;7.77;4.97;;;;;;;13.29;49.38;101377.28;10418278;28;20215;-82
2022/10/03 22:07:02;;;;;;;12.30;4.33;;;;;;;12.67;50.68;101371.69;10440013;28;20192;-81
2022/10/03 22:12:26;;;;;;;11.27;4.77;;;;;;;13.01;49.37;101364.53;10456058;28;20656;-82
2022/10/03 22:18:04;;;;;;;6.60;4.30;;;;;;;13.16;48.66;101378.22;10421935;28;20247;-81
2022/10/03 22:23:37;;;;;;;8.67;3.97;;;;;;;12.69;50.07;101372.19;10397063;28;20225;-82
2022/10/03 22:29:18;;;;;;;8.70;4.50;;;;;;;12.36;50.91;101365.19;10447201;28;20228;-81
2022/10/03 22:34:58;;;;;;;7.13;4.07;;;;;;;12.73;49.86;101357.41;10460666;28;20234;-80
2022/10/03 22:40:22;;;;;;;7.83;3.60;;;;;;;12.86;49.97;101333.84;10417816;28;20278;-81
2022/10/03 22:45:47;;;;;;;7.70;3.53;;;;;;;12.57;50.42;101335.22;10429184;28;20243;-81
2022/10/03 22:51:12;;;;;;;7.90;3.97;;;;;;;12.25;50.77;101341.16;10407597;28;20218;-81
2022/10/03 22:56:44;;;;;;;5.80;3.47;;;;;;;12.55;50.20;101340.34;10454975;28;20287;-81
2022/10/03 23:02:07;;;;;;;5.37;3.73;;;;;;;12.70;49.44;101341.94;10459337;28;20599;-80
2022/10/03 23:07:51;;;;;;;7.77;3.63;;;;;;;12.03;51.22;101336.34;10450759;28;20226;-82
2022/10/03 23:13:36;;;;;;;5.63;3.63;;;;;;;12.53;49.54;101328.53;10445142;28;20695;-83
2022/10/03 23:19:13;;;;;;;6.57;4.00;;;;;;;11.74;51.50;101319.81;10428519;28;20305;-83
2022/10/03 23:24:43;;;;;;;8.13;3.83;;;;;;;11.76;51.81;101323.16;10419990;28;20273;-83
2022/10/03 23:30:11;;;;;;;5.77;3.40;;;;;;;12.04;50.70;101311.75;10480528;28;20207;-83
2022/10/03 23:35:39;;;;;;;8.67;3.60;;;;;;;12.78;48.64;101314.81;10448936;28;20581;-83
2022/10/03 23:41:09;;;;;;;4.23;3.07;;;;;;;11.46;51.90;101316.25;10424691;28;20627;-82
2022/10/03 23:46:31;;;;;;;8.70;3.87;;;;;;;12.03;50.67;101307.25;10448959;28;20505;-81
2022/10/03 23:51:53;;;;;;;8.57;4.03;;;;;;;11.55;51.95;101310.69;10459002;28;20203;-81
2022/10/03 23:57:17;;;;;;;9.03;4.13;;;;;;;12.27;49.60;101296.41;10435001;28;20227;-82
